createdAt,value
2022-08-24T00:00:57.794Z,12.85
2022-08-24T00:04:01.332Z,8.18
2022-08-24T00:07:10.225Z,9.75
2022-08-24T00:10:29.522Z,7.43
2022-08-24T00:13:33.558Z,11.75
2022-08-24T00:16:44.233Z,8.05
2022-08-24T00:19:47.684Z,8.63
2022-08-24T00:22:50.674Z,9.40
2022-08-24T00:25:53.711Z,10.80
2022-08-24T00:28:57.034Z,10.55
2022-08-24T00:32:02.000Z,10.52
2022-08-24T00:35:06.345Z,10.27
2022-08-24T00:38:09.668Z,11.70
2022-08-24T00:41:15.825Z,11.13
2022-08-24T00:44:21.196Z,9.95
2022-08-24T00:47:31.539Z,14.25
2022-08-24T00:50:39.554Z,19.33
2022-08-24T00:53:50.663Z,15.75
2022-08-24T00:56:57.951Z,15.48
2022-08-24T01:00:10.289Z,16.52
2022-08-24T01:03:15.347Z,21.00
2022-08-24T01:06:18.567Z,13.60
2022-08-24T01:09:22.129Z,10.55
2022-08-24T01:12:28.055Z,11.55
2022-08-24T01:15:34.262Z,10.95
2022-08-24T01:18:51.514Z,9.02
2022-08-24T01:22:34.715Z,10.23
2022-08-24T01:25:43.347Z,14.57
2022-08-24T01:28:51.987Z,7.90
2022-08-24T01:31:55.750Z,7.68
2022-08-24T01:34:59.751Z,7.95
2022-08-24T01:38:08.214Z,8.30
2022-08-24T01:41:15.526Z,7.53
2022-08-24T01:44:19.578Z,8.98
2022-08-24T01:47:23.148Z,16.17
2022-08-24T01:50:26.607Z,19.83
2022-08-24T01:53:29.929Z,30.15
2022-08-24T01:56:35.478Z,24.83
2022-08-24T01:59:41.677Z,29.95
2022-08-24T02:02:46.005Z,34.72
2022-08-24T02:05:49.343Z,35.25
2022-08-24T02:08:52.398Z,33.95
2022-08-24T02:11:56.798Z,39.10
2022-08-24T02:15:00.768Z,49.75
2022-08-24T02:18:05.449Z,49.85
2022-08-24T02:21:09.607Z,50.33
2022-08-24T02:24:12.578Z,53.08
2022-08-24T02:27:17.045Z,47.72
2022-08-24T02:30:20.567Z,45.67
2022-08-24T02:33:24.348Z,53.60
2022-08-24T02:36:27.799Z,47.58
2022-08-24T02:39:34.260Z,40.97
2022-08-24T02:42:42.956Z,41.45
2022-08-24T02:45:50.446Z,54.42
2022-08-24T02:49:10.846Z,44.47
2022-08-24T02:52:15.788Z,45.05
2022-08-24T02:55:20.585Z,43.35
2022-08-24T02:58:27.781Z,42.75
2022-08-24T03:01:31.355Z,36.45
2022-08-24T03:04:34.898Z,44.08
2022-08-24T03:07:39.755Z,41.22
2022-08-24T03:10:42.926Z,39.83
2022-08-24T03:13:47.483Z,41.10
2022-08-24T03:16:50.705Z,46.95
2022-08-24T03:19:54.687Z,38.17
2022-08-24T03:22:57.926Z,40.15
2022-08-24T03:26:01.934Z,39.13
2022-08-24T03:29:06.599Z,37.03
2022-08-24T03:32:11.069Z,34.28
2022-08-24T03:35:16.149Z,39.97
2022-08-24T03:38:19.347Z,31.80
2022-08-24T03:41:22.591Z,35.95
2022-08-24T03:44:27.473Z,35.58
2022-08-24T03:47:31.429Z,36.03
2022-08-24T03:50:34.440Z,38.15
2022-08-24T03:53:42.909Z,35.83
2022-08-24T03:56:46.885Z,38.20
2022-08-24T03:59:51.374Z,36.28
2022-08-24T04:02:54.653Z,34.70
2022-08-24T04:06:01.203Z,33.53
2022-08-24T04:09:05.562Z,35.97
2022-08-24T04:12:12.545Z,37.08
2022-08-24T04:15:17.273Z,36.83
2022-08-24T04:18:23.781Z,34.78
2022-08-24T04:21:35.403Z,33.53
2022-08-24T04:24:39.966Z,29.88
2022-08-24T04:27:44.295Z,32.10
2022-08-24T04:30:50.411Z,34.83
2022-08-24T04:34:05.552Z,34.95
2022-08-24T04:37:11.350Z,32.70
2022-08-24T04:40:15.305Z,38.38
2022-08-24T04:43:26.109Z,34.03
2022-08-24T04:46:31.638Z,38.55
2022-08-24T04:49:34.651Z,34.13
2022-08-24T04:52:37.947Z,31.88
2022-08-24T04:55:46.629Z,39.90
2022-08-24T04:58:50.428Z,29.88
2022-08-24T05:01:54.763Z,37.38
2022-08-24T05:04:58.304Z,33.35
2022-08-24T05:08:01.581Z,33.90
2022-08-24T05:11:08.157Z,34.20
2022-08-24T05:14:11.293Z,37.00
2022-08-24T05:17:16.648Z,41.85
2022-08-24T05:20:20.689Z,37.20
2022-08-24T05:23:24.211Z,36.55
2022-08-24T05:26:31.023Z,38.70
2022-08-24T05:29:34.766Z,34.25
2022-08-24T05:32:39.812Z,41.85
2022-08-24T05:35:43.825Z,42.13
2022-08-24T05:38:48.862Z,34.33
2022-08-24T05:41:52.078Z,40.97
2022-08-24T05:45:00.519Z,43.17
2022-08-24T05:48:05.806Z,45.28
2022-08-24T05:51:42.588Z,40.78
2022-08-24T05:54:52.844Z,32.40
2022-08-24T05:57:56.770Z,31.77
2022-08-24T06:01:06.915Z,31.55
2022-08-24T06:04:11.212Z,30.42
2022-08-24T06:07:15.653Z,31.80
2022-08-24T06:10:38.745Z,30.33
2022-08-24T06:13:42.142Z,32.13
2022-08-24T06:16:48.583Z,25.42
2022-08-24T06:19:53.256Z,24.92
2022-08-24T06:22:56.251Z,23.20
2022-08-24T06:26:22.966Z,36.92
2022-08-24T06:29:26.563Z,36.35
2022-08-24T06:32:33.640Z,29.10
2022-08-24T06:35:38.158Z,33.08
2022-08-24T06:38:42.003Z,28.55
2022-08-24T06:41:49.758Z,34.50
2022-08-24T06:45:05.589Z,32.80
2022-08-24T06:48:08.670Z,30.92
2022-08-24T06:51:17.274Z,30.80
2022-08-24T06:54:21.760Z,27.52
2022-08-24T06:57:25.559Z,30.38
2022-08-24T07:00:30.611Z,24.90
2022-08-24T07:03:33.680Z,30.63
2022-08-24T07:06:49.727Z,26.27
2022-08-24T07:09:53.837Z,27.05
2022-08-24T07:12:57.255Z,26.67
2022-08-24T07:16:01.690Z,27.02
2022-08-24T07:19:06.725Z,26.90
2022-08-24T07:22:11.016Z,21.75
2022-08-24T07:25:14.590Z,23.65
2022-08-24T07:28:18.027Z,23.02
2022-08-24T07:31:37.182Z,20.85
2022-08-24T07:34:46.205Z,28.85
2022-08-24T07:37:51.260Z,28.98
2022-08-24T07:41:20.141Z,22.08
2022-08-24T07:44:21.085Z,22.42
2022-08-24T07:47:44.565Z,24.33
2022-08-24T07:51:09.107Z,24.70
2022-08-24T07:54:13.530Z,23.90
2022-08-24T07:57:19.034Z,20.95
2022-08-24T08:00:23.419Z,21.80
2022-08-24T08:03:34.014Z,21.15
2022-08-24T08:06:37.808Z,20.73
2022-08-24T08:09:42.675Z,23.92
2022-08-24T08:12:47.726Z,24.88
2022-08-24T08:15:50.889Z,21.35
2022-08-24T08:19:09.178Z,24.08
2022-08-24T08:22:32.877Z,27.10
2022-08-24T08:25:58.468Z,24.48
2022-08-24T08:29:14.962Z,22.58
2022-08-24T08:32:20.030Z,21.83
2022-08-24T08:35:26.230Z,19.13
2022-08-24T08:38:29.920Z,15.63
2022-08-24T08:42:28.660Z,12.77
2022-08-24T08:45:55.456Z,15.93
2022-08-24T08:50:09.466Z,16.50
2022-08-24T08:53:47.655Z,16.88
2022-08-24T08:57:11.560Z,18.58
2022-08-24T09:00:22.219Z,21.02
2022-08-24T09:03:45.475Z,21.60
2022-08-24T09:07:17.636Z,17.67
2022-08-24T09:10:51.245Z,22.00
2022-08-24T09:14:25.810Z,22.58
2022-08-24T09:17:49.206Z,20.10
2022-08-24T09:21:17.090Z,25.08
2022-08-24T09:24:53.146Z,21.50
2022-08-24T09:28:17.890Z,22.67
2022-08-24T09:31:57.206Z,20.92
2022-08-24T09:35:04.215Z,19.42
2022-08-24T09:38:20.335Z,19.90
2022-08-24T09:41:50.067Z,25.70
2022-08-24T09:45:25.416Z,21.25
2022-08-24T09:48:53.873Z,31.48
2022-08-24T09:52:47.463Z,26.98
2022-08-24T09:56:15.484Z,25.90
2022-08-24T09:59:44.267Z,28.00
2022-08-24T10:03:00.919Z,25.05
2022-08-24T10:06:22.160Z,26.60
2022-08-24T10:10:04.830Z,27.42
2022-08-24T10:13:21.598Z,27.13
2022-08-24T10:16:38.920Z,24.15
2022-08-24T10:19:59.796Z,22.83
2022-08-24T10:23:39.483Z,21.48
2022-08-24T10:27:18.625Z,21.40
2022-08-24T10:31:02.695Z,17.40
2022-08-24T10:34:28.887Z,19.58
2022-08-24T10:38:30.035Z,20.38
2022-08-24T10:42:36.748Z,19.33
2022-08-24T10:46:18.744Z,21.75
2022-08-24T10:50:30.891Z,18.73
2022-08-24T10:53:35.217Z,19.83
2022-08-24T10:56:52.522Z,16.50
2022-08-24T11:00:07.165Z,19.73
2022-08-24T11:03:18.816Z,17.70
2022-08-24T11:06:24.088Z,20.73
2022-08-24T11:09:46.825Z,22.08
2022-08-24T11:12:51.153Z,15.10
2022-08-24T11:15:59.666Z,20.45
2022-08-24T11:19:07.148Z,19.60
2022-08-24T11:22:31.518Z,20.17
2022-08-24T11:25:38.862Z,23.25
2022-08-24T11:28:54.221Z,17.15
2022-08-24T11:31:58.000Z,19.73
2022-08-24T11:35:14.453Z,14.85
2022-08-24T11:38:22.453Z,17.02
2022-08-24T11:41:32.367Z,16.25
2022-08-24T11:44:44.548Z,16.15
2022-08-24T11:48:00.447Z,19.23
2022-08-24T11:51:11.484Z,16.50
2022-08-24T11:54:25.936Z,13.95
2022-08-24T11:57:39.379Z,13.50
2022-08-24T12:01:00.114Z,12.15
2022-08-24T12:04:18.959Z,14.82
2022-08-24T12:07:35.203Z,15.45
2022-08-24T12:10:49.319Z,16.55
2022-08-24T12:13:58.960Z,10.75
2022-08-24T12:17:13.114Z,16.85
2022-08-24T12:20:28.051Z,10.48
2022-08-24T12:23:38.641Z,12.07
2022-08-24T12:26:46.575Z,11.90
2022-08-24T12:29:55.640Z,13.77
2022-08-24T12:33:05.126Z,18.73
2022-08-24T12:36:22.572Z,9.55
2022-08-24T12:39:31.118Z,11.38
2022-08-24T12:42:46.577Z,15.00
2022-08-24T12:45:52.321Z,12.90
2022-08-24T12:49:02.215Z,13.15
2022-08-24T12:52:26.359Z,8.70
2022-08-24T12:56:13.020Z,12.57
2022-08-24T12:59:23.446Z,8.27
2022-08-24T13:02:34.380Z,9.35
2022-08-24T13:05:48.484Z,8.27
2022-08-24T13:08:54.130Z,8.65
2022-08-24T13:11:58.717Z,9.07
2022-08-24T13:15:26.127Z,12.10
2022-08-24T13:18:54.303Z,8.93
2022-08-24T13:22:00.256Z,13.10
2022-08-24T13:25:20.248Z,9.75
2022-08-24T13:28:40.825Z,8.50
2022-08-24T13:31:55.009Z,8.38
2022-08-24T13:34:59.763Z,10.63
2022-08-24T13:38:34.308Z,10.65
2022-08-24T13:42:00.562Z,10.10
2022-08-24T13:45:22.908Z,11.95
2022-08-24T13:48:43.888Z,9.30
2022-08-24T13:51:53.527Z,9.20
2022-08-24T13:55:23.393Z,8.95
2022-08-24T13:58:43.270Z,10.65
2022-08-24T14:02:05.712Z,10.48
2022-08-24T14:05:19.285Z,15.65
2022-08-24T14:08:40.552Z,19.02
2022-08-24T14:12:07.299Z,18.20
2022-08-24T14:15:23.412Z,17.20
2022-08-24T14:18:34.494Z,14.40
2022-08-24T14:21:44.953Z,15.75
2022-08-24T14:24:59.144Z,17.88
2022-08-24T14:28:40.843Z,9.68
2022-08-24T14:32:51.760Z,12.95
2022-08-24T14:36:20.671Z,7.88
2022-08-24T14:39:36.362Z,12.15
2022-08-24T14:42:45.926Z,10.63
2022-08-24T14:45:57.283Z,12.40
2022-08-24T14:49:13.823Z,8.40
2022-08-24T14:52:38.947Z,10.70
2022-08-24T14:55:48.534Z,8.57
2022-08-24T14:59:06.333Z,14.00
2022-08-24T15:02:46.334Z,6.70
2022-08-24T15:06:26.210Z,13.18
2022-08-24T15:09:36.653Z,12.88
2022-08-24T15:12:46.291Z,9.95
2022-08-24T15:15:57.491Z,11.65
2022-08-24T15:19:09.117Z,12.93
2022-08-24T15:22:27.370Z,11.60
2022-08-24T15:25:37.838Z,11.77
2022-08-24T15:28:56.387Z,12.25
2022-08-24T15:32:06.055Z,9.68
2022-08-24T15:35:40.038Z,6.07
2022-08-24T15:38:45.529Z,12.65
2022-08-24T15:41:50.591Z,11.30
2022-08-24T15:44:54.340Z,12.52
2022-08-24T15:48:00.062Z,8.77
2022-08-24T15:51:05.173Z,9.25
2022-08-24T15:54:28.401Z,11.25
2022-08-24T15:57:42.813Z,8.48
2022-08-24T16:01:03.949Z,10.98
2022-08-24T16:04:10.447Z,12.13
2022-08-24T16:07:23.503Z,7.88
2022-08-24T16:10:32.758Z,7.75
2022-08-24T16:13:36.025Z,8.93
2022-08-24T16:16:43.363Z,12.45
2022-08-24T16:19:54.440Z,11.73
2022-08-24T16:23:01.490Z,8.52
2022-08-24T16:26:25.455Z,9.82
2022-08-24T16:29:50.314Z,12.02
2022-08-24T16:32:59.145Z,9.13
2022-08-24T16:36:07.023Z,11.52
2022-08-24T16:39:13.158Z,7.40
2022-08-24T16:42:23.091Z,9.88
2022-08-24T16:45:26.459Z,11.93
2022-08-24T16:48:29.667Z,10.57
2022-08-24T16:51:32.857Z,7.32
2022-08-24T16:54:37.339Z,10.70
2022-08-24T16:57:40.388Z,9.80
2022-08-24T17:00:46.060Z,8.85
2022-08-24T17:03:49.120Z,9.02
2022-08-24T17:06:52.255Z,8.15
2022-08-24T17:09:58.120Z,12.07
2022-08-24T17:13:01.417Z,13.77
2022-08-24T17:16:05.108Z,8.00
2022-08-24T17:19:14.263Z,13.95
2022-08-24T17:22:17.539Z,13.05
2022-08-24T17:25:22.007Z,10.35
2022-08-24T17:28:25.141Z,12.73
2022-08-24T17:31:34.820Z,7.35
2022-08-24T17:34:38.738Z,8.57
2022-08-24T17:37:43.412Z,13.45
2022-08-24T17:40:47.811Z,8.50
2022-08-24T17:43:50.937Z,8.80
2022-08-24T17:46:57.602Z,9.27
2022-08-24T17:50:05.946Z,10.38
2022-08-24T17:53:09.549Z,8.48
2022-08-24T17:56:15.697Z,10.38
2022-08-24T17:59:28.307Z,10.32
2022-08-24T18:02:31.306Z,11.10
2022-08-24T18:05:36.983Z,11.82
2022-08-24T18:08:40.240Z,10.50
2022-08-24T18:11:44.712Z,12.93
2022-08-24T18:14:48.451Z,10.75
2022-08-24T18:17:53.102Z,12.82
2022-08-24T18:20:56.087Z,9.13
2022-08-24T18:24:01.392Z,9.60
2022-08-24T18:27:10.638Z,10.63
2022-08-24T18:30:20.600Z,10.25
2022-08-24T18:33:25.466Z,10.27
2022-08-24T18:36:29.182Z,12.00
2022-08-24T18:39:32.348Z,8.00
2022-08-24T18:42:38.291Z,12.30
2022-08-24T18:45:41.332Z,11.98
2022-08-24T18:48:44.337Z,9.45
2022-08-24T18:51:49.144Z,12.48
2022-08-24T18:54:52.410Z,15.98
2022-08-24T18:57:56.799Z,13.68
2022-08-24T19:01:00.337Z,12.68
2022-08-24T19:04:09.634Z,10.60
2022-08-24T19:07:17.090Z,12.25
2022-08-24T19:10:23.980Z,14.07
2022-08-24T19:13:28.728Z,12.48
2022-08-24T19:16:32.209Z,11.50
2022-08-24T19:19:35.859Z,12.45
2022-08-24T19:22:40.613Z,13.80
2022-08-24T19:25:45.475Z,12.27
2022-08-24T19:28:50.208Z,15.73
2022-08-24T19:31:53.881Z,13.98
2022-08-24T19:34:58.019Z,12.55
2022-08-24T19:38:01.006Z,11.98
2022-08-24T19:41:11.851Z,9.48
2022-08-24T19:44:37.552Z,9.38
2022-08-24T19:47:40.769Z,9.30
2022-08-24T19:50:44.055Z,7.68
2022-08-24T19:53:47.732Z,9.30
2022-08-24T19:56:54.293Z,12.00
2022-08-24T20:00:01.874Z,9.48
2022-08-24T20:03:09.100Z,11.68
2022-08-24T20:06:13.422Z,11.57
2022-08-24T20:09:19.546Z,9.63
2022-08-24T20:12:24.757Z,13.57
2022-08-24T20:15:29.226Z,9.65
2022-08-24T20:18:35.417Z,12.15
2022-08-24T20:21:38.783Z,9.10
2022-08-24T20:24:42.559Z,9.68
2022-08-24T20:27:46.913Z,11.13
2022-08-24T20:30:51.204Z,10.70
2022-08-24T20:33:54.168Z,16.13
2022-08-24T20:36:58.426Z,9.88
2022-08-24T20:40:02.922Z,13.13
2022-08-24T20:43:07.321Z,12.88
2022-08-24T20:46:12.229Z,18.02
2022-08-24T20:49:16.871Z,10.57
2022-08-24T20:52:20.820Z,12.93
2022-08-24T20:55:23.932Z,12.85
2022-08-24T20:58:27.141Z,9.85
2022-08-24T21:01:32.324Z,10.57
2022-08-24T21:04:35.655Z,10.18
2022-08-24T21:07:41.420Z,11.55
2022-08-24T21:10:45.592Z,11.35
2022-08-24T21:13:49.590Z,13.00
2022-08-24T21:16:55.201Z,12.32
2022-08-24T21:19:58.289Z,15.18
2022-08-24T21:23:01.279Z,12.45
2022-08-24T21:26:09.168Z,11.82
2022-08-24T21:29:12.279Z,9.75
2022-08-24T21:32:34.196Z,11.93
2022-08-24T21:35:39.455Z,10.48
2022-08-24T21:38:45.262Z,14.70
2022-08-24T21:41:48.539Z,16.30
2022-08-24T21:44:51.518Z,13.27
2022-08-24T21:47:55.996Z,11.73
2022-08-24T21:50:58.949Z,13.05
2022-08-24T21:54:02.225Z,9.95
2022-08-24T21:57:07.015Z,10.48
2022-08-24T22:00:15.607Z,15.35
2022-08-24T22:03:20.387Z,14.77
2022-08-24T22:06:25.921Z,16.25
2022-08-24T22:09:32.307Z,14.63
2022-08-24T22:12:35.772Z,12.55
2022-08-24T22:15:39.409Z,13.32
2022-08-24T22:18:43.862Z,14.23
2022-08-24T22:21:48.291Z,13.27
2022-08-24T22:24:51.558Z,12.27
2022-08-24T22:27:54.573Z,13.60
2022-08-24T22:30:57.685Z,11.38
2022-08-24T22:34:04.882Z,14.05
2022-08-24T22:37:08.236Z,12.98
2022-08-24T22:40:13.054Z,11.27
2022-08-24T22:43:16.480Z,19.58
2022-08-24T22:46:19.984Z,12.32
2022-08-24T22:49:28.788Z,13.25
2022-08-24T22:52:32.132Z,11.73
2022-08-24T22:55:35.156Z,12.90
2022-08-24T22:58:38.323Z,20.63
2022-08-24T23:01:44.437Z,20.42
2022-08-24T23:04:52.102Z,13.90
2022-08-24T23:07:55.072Z,20.27
2022-08-24T23:10:58.083Z,14.85
2022-08-24T23:14:03.148Z,15.65
2022-08-24T23:17:06.656Z,11.13
2022-08-24T23:20:11.530Z,13.43
2022-08-24T23:23:14.519Z,16.23
2022-08-24T23:26:18.553Z,13.48
2022-08-24T23:29:22.187Z,15.43
2022-08-24T23:32:25.177Z,10.38
2022-08-24T23:35:29.710Z,13.18
2022-08-24T23:38:33.281Z,11.10
2022-08-24T23:41:40.588Z,12.00
2022-08-24T23:44:46.100Z,10.88
2022-08-24T23:47:49.063Z,11.50
2022-08-24T23:50:53.480Z,11.82
2022-08-24T23:53:57.078Z,11.30
2022-08-24T23:57:00.962Z,10.98
